Главная страница
METAR-TAF:

METAR-TAF

Аэропорты :

Кристианстад, Швеция

широта: 55-55N, долгота: 014-05E, высота над уровнем моря: 23 м

Текущие метеонаблюдения

Эта сводка был подготовлена 30 минут назад, в 10:20 UTC
Ветер 11 Узел от западный
Температура 14°C
Влажность 67%
Давление 1011 hPa
Видимость 10 км и более

METAR: ESMK 251020Z AUTO 28011KT 9999 BKN022/// 14/08 Q1011

Время: 12:50 (10:50 UTC)

Прогноз

Эта сводка был подготовлена 17 часа и 47 минут назад, в 17:03 UTC
Прогноз действительный с 24-го 18 UTC до 24-го 20 UTC
Ветер 10 Узел от западный-юго-западный
Видимость 10 км и более
Отдельные облака на высоте 4000 фута

TAF: ESMK 241703Z 2418/2420 25010KT 9999 SCT040

Метеонаблюдения и прогнозы для более 4000 аэропортов (сводки METAR и TAF).

Имеющиеся станции представлены на карте желтыми и красными точками.

Чтобы увидеть название станции, наведите на нее мышь.

Затем щелкните, чтобы увидеть метеонаблюдения и метеопрогнозы.

Управление картой: чтобы увеличить масштаб, щелкните зеленые кнопки с черным крестиком; чтобы уменьшить масштаб, щелкните зеленую кнопку с тире; для просмотра соседних карт щелкайте зеленые стрелки.


METAR-TAF: